Readsville, Missouri
Current Conditions -  °F | °C
As of 10:53 AM on Thursday 23 Oct 2014 (Local Time) from KJEF Reporting Station
Scattered Clouds Scattered Clouds  
Wind Chill: 58°   Ceiling: Unl
Heat Index: 58°   Visibility: 10mi
Dew Point: 45°   Wind: 6mph
Humidity: 62%   Direction: 170°S
Pressure: 30.17"   Gusts: NA
Location:  38.7662°N, 91.6923°W
Report Text: KJEF 231553Z 17005KT 10SM SCT100 14/07 A3017 RMK AO2 SLP207 T01440072
Loading
Personal Weather Stations






























Interactive Weather Map
Tropical Storm Tracking
New forecast layout! Learn more

10-Day Weather Forecast

Advertisements
Track Severe Weather on mobile